sensor_id;sensor_type;location;lat;lon;timestamp;P1;durP1;ratioP1;P2;durP2;ratioP2
1693;SDS011;844;47.058;15.472;2022-10-12T00:02:03;14.57;;;13.27;;
1693;SDS011;844;47.058;15.472;2022-10-12T00:04:33;16.33;;;14.73;;
1693;SDS011;844;47.058;15.472;2022-10-12T00:07:05;16.50;;;15.10;;
1693;SDS011;844;47.058;15.472;2022-10-12T00:09:37;15.77;;;14.27;;
1693;SDS011;844;47.058;15.472;2022-10-12T00:12:07;16.83;;;15.40;;
1693;SDS011;844;47.058;15.472;2022-10-12T00:14:36;14.70;;;13.40;;
1693;SDS011;844;47.058;15.472;2022-10-12T00:17:05;14.27;;;13.10;;
1693;SDS011;844;47.058;15.472;2022-10-12T00:19:35;14.87;;;13.30;;
1693;SDS011;844;47.058;15.472;2022-10-12T00:22:06;14.80;;;13.47;;
1693;SDS011;844;47.058;15.472;2022-10-12T00:24:37;13.13;;;11.93;;
1693;SDS011;844;47.058;15.472;2022-10-12T00:27:08;14.60;;;13.17;;
1693;SDS011;844;47.058;15.472;2022-10-12T00:29:38;15.33;;;13.90;;
1693;SDS011;844;47.058;15.472;2022-10-12T00:32:07;15.43;;;13.93;;
1693;SDS011;844;47.058;15.472;2022-10-12T00:34:36;13.97;;;12.83;;
1693;SDS011;844;47.058;15.472;2022-10-12T00:37:06;15.97;;;14.27;;
1693;SDS011;844;47.058;15.472;2022-10-12T00:39:36;15.50;;;14.10;;
1693;SDS011;844;47.058;15.472;2022-10-12T00:42:06;16.00;;;14.47;;
1693;SDS011;844;47.058;15.472;2022-10-12T00:44:38;15.77;;;13.97;;
1693;SDS011;844;47.058;15.472;2022-10-12T00:47:14;16.63;;;13.97;;
1693;SDS011;844;47.058;15.472;2022-10-12T00:49:49;16.73;;;15.23;;
1693;SDS011;844;47.058;15.472;2022-10-12T00:52:22;26.47;;;16.40;;
1693;SDS011;844;47.058;15.472;2022-10-12T00:54:57;17.50;;;15.70;;
1693;SDS011;844;47.058;15.472;2022-10-12T00:57:27;17.23;;;15.53;;
1693;SDS011;844;47.058;15.472;2022-10-12T01:00:00;17.07;;;15.43;;
1693;SDS011;844;47.058;15.472;2022-10-12T01:02:32;15.93;;;14.30;;
1693;SDS011;844;47.058;15.472;2022-10-12T01:05:02;16.63;;;15.13;;
1693;SDS011;844;47.058;15.472;2022-10-12T01:07:32;16.23;;;14.57;;
1693;SDS011;844;47.058;15.472;2022-10-12T01:10:04;17.27;;;15.70;;
1693;SDS011;844;47.058;15.472;2022-10-12T01:12:34;16.13;;;14.03;;
1693;SDS011;844;47.058;15.472;2022-10-12T01:15:04;15.77;;;14.23;;
1693;SDS011;844;47.058;15.472;2022-10-12T01:17:35;14.63;;;13.30;;
1693;SDS011;844;47.058;15.472;2022-10-12T01:26:46;16.20;;;14.50;;
1693;SDS011;844;47.058;15.472;2022-10-12T01:29:30;15.23;;;13.73;;
1693;SDS011;844;47.058;15.472;2022-10-12T01:32:14;16.23;;;14.67;;
1693;SDS011;844;47.058;15.472;2022-10-12T01:34:47;14.90;;;13.37;;
1693;SDS011;844;47.058;15.472;2022-10-12T01:37:26;15.43;;;14.00;;
1693;SDS011;844;47.058;15.472;2022-10-12T01:40:03;16.50;;;14.17;;
1693;SDS011;844;47.058;15.472;2022-10-12T01:42:38;16.90;;;14.90;;
1693;SDS011;844;47.058;15.472;2022-10-12T01:45:09;16.40;;;14.10;;
1693;SDS011;844;47.058;15.472;2022-10-12T01:47:41;15.67;;;13.20;;
1693;SDS011;844;47.058;15.472;2022-10-12T01:50:14;14.03;;;12.63;;
1693;SDS011;844;47.058;15.472;2022-10-12T01:52:45;16.43;;;14.93;;
1693;SDS011;844;47.058;15.472;2022-10-12T01:55:25;14.20;;;12.83;;
1693;SDS011;844;47.058;15.472;2022-10-12T01:58:05;14.73;;;13.33;;
1693;SDS011;844;47.058;15.472;2022-10-12T02:00:52;13.70;;;12.27;;
1693;SDS011;844;47.058;15.472;2022-10-12T02:03:28;12.97;;;11.90;;
1693;SDS011;844;47.058;15.472;2022-10-12T02:06:04;14.03;;;12.57;;
1693;SDS011;844;47.058;15.472;2022-10-12T02:08:36;13.90;;;12.90;;
1693;SDS011;844;47.058;15.472;2022-10-12T02:11:09;13.27;;;12.03;;
1693;SDS011;844;47.058;15.472;2022-10-12T02:13:43;13.40;;;12.10;;
1693;SDS011;844;47.058;15.472;2022-10-12T02:16:14;14.30;;;12.43;;
1693;SDS011;844;47.058;15.472;2022-10-12T02:18:48;13.43;;;12.23;;
1693;SDS011;844;47.058;15.472;2022-10-12T02:21:20;14.20;;;13.00;;
1693;SDS011;844;47.058;15.472;2022-10-12T02:23:51;15.67;;;13.37;;
1693;SDS011;844;47.058;15.472;2022-10-12T02:26:22;13.93;;;12.53;;
1693;SDS011;844;47.058;15.472;2022-10-12T02:28:51;12.57;;;11.30;;
1693;SDS011;844;47.058;15.472;2022-10-12T02:31:23;14.53;;;13.33;;
1693;SDS011;844;47.058;15.472;2022-10-12T02:33:59;14.37;;;13.07;;
1693;SDS011;844;47.058;15.472;2022-10-12T02:36:33;15.83;;;14.30;;
1693;SDS011;844;47.058;15.472;2022-10-12T02:39:06;14.80;;;13.50;;
1693;SDS011;844;47.058;15.472;2022-10-12T02:41:39;13.67;;;12.60;;
1693;SDS011;844;47.058;15.472;2022-10-12T02:44:12;14.27;;;12.87;;
1693;SDS011;844;47.058;15.472;2022-10-12T02:46:43;15.43;;;13.57;;
1693;SDS011;844;47.058;15.472;2022-10-12T02:49:16;15.83;;;14.20;;
1693;SDS011;844;47.058;15.472;2022-10-12T02:51:45;16.07;;;14.67;;
1693;SDS011;844;47.058;15.472;2022-10-12T02:54:15;15.70;;;14.10;;
1693;SDS011;844;47.058;15.472;2022-10-12T02:56:45;14.37;;;12.80;;
1693;SDS011;844;47.058;15.472;2022-10-12T02:59:15;13.60;;;12.33;;
1693;SDS011;844;47.058;15.472;2022-10-12T03:01:45;13.53;;;12.33;;
1693;SDS011;844;47.058;15.472;2022-10-12T03:04:16;14.43;;;13.13;;
1693;SDS011;844;47.058;15.472;2022-10-12T03:06:46;15.07;;;13.67;;
1693;SDS011;844;47.058;15.472;2022-10-12T03:09:15;14.60;;;13.00;;
1693;SDS011;844;47.058;15.472;2022-10-12T03:11:44;15.20;;;13.70;;
1693;SDS011;844;47.058;15.472;2022-10-12T03:14:14;16.20;;;14.53;;
1693;SDS011;844;47.058;15.472;2022-10-12T03:16:43;14.80;;;12.47;;
1693;SDS011;844;47.058;15.472;2022-10-12T03:19:14;15.50;;;14.23;;
1693;SDS011;844;47.058;15.472;2022-10-12T03:21:44;14.30;;;13.00;;
1693;SDS011;844;47.058;15.472;2022-10-12T03:24:14;14.70;;;13.30;;
1693;SDS011;844;47.058;15.472;2022-10-12T03:26:43;14.30;;;12.00;;
1693;SDS011;844;47.058;15.472;2022-10-12T03:29:12;14.83;;;13.47;;
1693;SDS011;844;47.058;15.472;2022-10-12T03:31:48;14.53;;;12.20;;
1693;SDS011;844;47.058;15.472;2022-10-12T03:34:17;13.60;;;12.40;;
1693;SDS011;844;47.058;15.472;2022-10-12T03:36:48;14.37;;;12.97;;
1693;SDS011;844;47.058;15.472;2022-10-12T03:39:17;12.70;;;11.60;;
1693;SDS011;844;47.058;15.472;2022-10-12T03:41:47;14.17;;;13.07;;
1693;SDS011;844;47.058;15.472;2022-10-12T03:44:16;13.43;;;12.23;;
1693;SDS011;844;47.058;15.472;2022-10-12T03:46:46;13.50;;;12.20;;
1693;SDS011;844;47.058;15.472;2022-10-12T03:49:16;15.17;;;13.70;;
1693;SDS011;844;47.058;15.472;2022-10-12T03:51:45;15.30;;;13.70;;
1693;SDS011;844;47.058;15.472;2022-10-12T03:54:16;15.83;;;13.13;;
1693;SDS011;844;47.058;15.472;2022-10-12T03:56:45;15.67;;;14.00;;
1693;SDS011;844;47.058;15.472;2022-10-12T03:59:14;15.90;;;14.13;;
1693;SDS011;844;47.058;15.472;2022-10-12T04:01:44;12.90;;;11.70;;
1693;SDS011;844;47.058;15.472;2022-10-12T04:04:13;19.93;;;14.27;;
1693;SDS011;844;47.058;15.472;2022-10-12T04:06:42;13.80;;;12.60;;
1693;SDS011;844;47.058;15.472;2022-10-12T04:09:13;15.13;;;13.70;;
1693;SDS011;844;47.058;15.472;2022-10-12T04:11:43;14.00;;;12.50;;
1693;SDS011;844;47.058;15.472;2022-10-12T04:14:12;15.20;;;13.43;;
1693;SDS011;844;47.058;15.472;2022-10-12T04:16:42;14.10;;;12.80;;
1693;SDS011;844;47.058;15.472;2022-10-12T04:19:11;16.07;;;13.40;;
1693;SDS011;844;47.058;15.472;2022-10-12T04:21:41;14.10;;;12.97;;
1693;SDS011;844;47.058;15.472;2022-10-12T04:24:10;14.43;;;13.07;;
1693;SDS011;844;47.058;15.472;2022-10-12T04:26:41;16.93;;;12.73;;
1693;SDS011;844;47.058;15.472;2022-10-12T14:46:51;10.13;;;8.33;;
1693;SDS011;844;47.058;15.472;2022-10-12T14:49:24;8.70;;;7.80;;
1693;SDS011;844;47.058;15.472;2022-10-12T14:52:06;9.30;;;8.43;;
1693;SDS011;844;47.058;15.472;2022-10-12T14:54:50;9.80;;;9.00;;
1693;SDS011;844;47.058;15.472;2022-10-12T14:57:29;10.63;;;9.50;;
1693;SDS011;844;47.058;15.472;2022-10-12T15:00:03;8.50;;;7.70;;
1693;SDS011;844;47.058;15.472;2022-10-12T15:02:35;9.27;;;8.23;;
1693;SDS011;844;47.058;15.472;2022-10-12T15:05:05;12.17;;;8.93;;
1693;SDS011;844;47.058;15.472;2022-10-12T15:07:37;8.13;;;7.43;;
1693;SDS011;844;47.058;15.472;2022-10-12T15:10:07;8.90;;;8.00;;
1693;SDS011;844;47.058;15.472;2022-10-12T15:12:37;8.97;;;8.13;;
1693;SDS011;844;47.058;15.472;2022-10-12T15:15:23;8.20;;;7.63;;
1693;SDS011;844;47.058;15.472;2022-10-12T15:18:00;9.97;;;8.30;;
1693;SDS011;844;47.058;15.472;2022-10-12T15:20:29;8.50;;;7.70;;
1693;SDS011;844;47.058;15.472;2022-10-12T15:23:01;9.47;;;8.50;;
1693;SDS011;844;47.058;15.472;2022-10-12T15:25:35;10.57;;;9.53;;
1693;SDS011;844;47.058;15.472;2022-10-12T15:28:07;9.40;;;8.50;;
1693;SDS011;844;47.058;15.472;2022-10-12T15:30:36;12.40;;;9.10;;
1693;SDS011;844;47.058;15.472;2022-10-12T15:33:28;13.07;;;11.77;;
1693;SDS011;844;47.058;15.472;2022-10-12T15:35:58;9.77;;;8.93;;
1693;SDS011;844;47.058;15.472;2022-10-12T15:38:28;10.73;;;9.83;;
1693;SDS011;844;47.058;15.472;2022-10-12T15:40:59;10.43;;;9.13;;
1693;SDS011;844;47.058;15.472;2022-10-12T15:43:29;10.20;;;9.30;;
1693;SDS011;844;47.058;15.472;2022-10-12T15:46:07;10.80;;;9.40;;
1693;SDS011;844;47.058;15.472;2022-10-12T15:48:40;11.20;;;10.20;;
1693;SDS011;844;47.058;15.472;2022-10-12T15:51:11;11.63;;;9.57;;
1693;SDS011;844;47.058;15.472;2022-10-12T15:53:59;10.77;;;9.83;;
1693;SDS011;844;47.058;15.472;2022-10-12T15:56:31;10.07;;;9.00;;
1693;SDS011;844;47.058;15.472;2022-10-12T15:59:03;11.10;;;10.07;;
1693;SDS011;844;47.058;15.472;2022-10-12T16:01:38;10.10;;;9.10;;
1693;SDS011;844;47.058;15.472;2022-10-12T16:04:12;11.50;;;10.47;;
1693;SDS011;844;47.058;15.472;2022-10-12T16:06:47;12.90;;;10.77;;
1693;SDS011;844;47.058;15.472;2022-10-12T16:09:16;15.63;;;11.00;;
1693;SDS011;844;47.058;15.472;2022-10-12T16:11:46;12.83;;;11.57;;
1693;SDS011;844;47.058;15.472;2022-10-12T16:14:16;16.00;;;11.93;;
1693;SDS011;844;47.058;15.472;2022-10-12T16:16:46;13.53;;;11.80;;
1693;SDS011;844;47.058;15.472;2022-10-12T16:19:17;14.93;;;11.20;;
1693;SDS011;844;47.058;15.472;2022-10-12T16:21:47;12.47;;;11.37;;
1693;SDS011;844;47.058;15.472;2022-10-12T16:24:16;14.37;;;11.77;;
1693;SDS011;844;47.058;15.472;2022-10-12T16:26:45;16.10;;;11.63;;
1693;SDS011;844;47.058;15.472;2022-10-12T16:29:17;12.87;;;11.60;;
1693;SDS011;844;47.058;15.472;2022-10-12T16:31:48;13.23;;;11.83;;
1693;SDS011;844;47.058;15.472;2022-10-12T16:34:22;12.70;;;11.47;;
1693;SDS011;844;47.058;15.472;2022-10-12T16:36:51;13.80;;;12.33;;
1693;SDS011;844;47.058;15.472;2022-10-12T16:39:30;18.70;;;13.80;;
1693;SDS011;844;47.058;15.472;2022-10-12T16:42:23;15.70;;;12.93;;
1693;SDS011;844;47.058;15.472;2022-10-12T16:45:20;17.07;;;13.80;;
1693;SDS011;844;47.058;15.472;2022-10-12T16:48:15;17.43;;;15.63;;
1693;SDS011;844;47.058;15.472;2022-10-12T16:50:47;15.37;;;13.77;;
1693;SDS011;844;47.058;15.472;2022-10-12T16:53:17;15.53;;;13.90;;
1693;SDS011;844;47.058;15.472;2022-10-12T16:55:47;15.57;;;13.97;;
1693;SDS011;844;47.058;15.472;2022-10-12T16:58:20;15.63;;;14.13;;
1693;SDS011;844;47.058;15.472;2022-10-12T17:00:53;15.20;;;13.70;;
1693;SDS011;844;47.058;15.472;2022-10-12T17:03:28;15.37;;;13.77;;
1693;SDS011;844;47.058;15.472;2022-10-12T17:05:59;16.20;;;14.73;;
1693;SDS011;844;47.058;15.472;2022-10-12T17:08:30;17.97;;;16.37;;
1693;SDS011;844;47.058;15.472;2022-10-12T17:11:06;18.87;;;16.97;;
1693;SDS011;844;47.058;15.472;2022-10-12T17:13:36;17.40;;;15.63;;
1693;SDS011;844;47.058;15.472;2022-10-12T17:16:15;21.50;;;17.20;;
1693;SDS011;844;47.058;15.472;2022-10-12T17:19:06;17.77;;;16.00;;
1693;SDS011;844;47.058;15.472;2022-10-12T17:21:37;17.33;;;15.80;;
1693;SDS011;844;47.058;15.472;2022-10-12T17:24:08;15.93;;;14.43;;
1693;SDS011;844;47.058;15.472;2022-10-12T17:26:38;14.90;;;13.70;;
1693;SDS011;844;47.058;15.472;2022-10-12T17:29:08;16.50;;;14.63;;
1693;SDS011;844;47.058;15.472;2022-10-12T17:31:39;17.07;;;15.67;;
1693;SDS011;844;47.058;15.472;2022-10-12T17:34:12;16.93;;;15.20;;
1693;SDS011;844;47.058;15.472;2022-10-12T17:36:47;15.60;;;14.07;;
1693;SDS011;844;47.058;15.472;2022-10-12T17:39:20;15.83;;;14.43;;
1693;SDS011;844;47.058;15.472;2022-10-12T17:41:50;13.43;;;12.27;;
1693;SDS011;844;47.058;15.472;2022-10-12T17:44:20;15.70;;;14.10;;
1693;SDS011;844;47.058;15.472;2022-10-12T17:46:51;15.50;;;14.20;;
1693;SDS011;844;47.058;15.472;2022-10-12T17:49:20;15.50;;;12.77;;
1693;SDS011;844;47.058;15.472;2022-10-12T17:51:52;15.93;;;13.73;;
1693;SDS011;844;47.058;15.472;2022-10-12T17:54:22;14.67;;;13.30;;
1693;SDS011;844;47.058;15.472;2022-10-12T17:56:53;14.73;;;13.47;;
1693;SDS011;844;47.058;15.472;2022-10-12T17:59:24;16.93;;;15.10;;
1693;SDS011;844;47.058;15.472;2022-10-12T18:02:11;14.13;;;12.93;;
1693;SDS011;844;47.058;15.472;2022-10-12T18:04:59;14.53;;;12.03;;
1693;SDS011;844;47.058;15.472;2022-10-12T18:07:47;14.37;;;12.87;;
1693;SDS011;844;47.058;15.472;2022-10-12T18:10:20;12.70;;;11.40;;
1693;SDS011;844;47.058;15.472;2022-10-12T18:12:54;12.50;;;11.43;;
1693;SDS011;844;47.058;15.472;2022-10-12T18:15:23;14.00;;;12.80;;
1693;SDS011;844;47.058;15.472;2022-10-12T18:17:53;17.30;;;12.20;;
1693;SDS011;844;47.058;15.472;2022-10-12T18:20:24;11.80;;;10.87;;
1693;SDS011;844;47.058;15.472;2022-10-12T18:22:58;13.43;;;12.03;;
1693;SDS011;844;47.058;15.472;2022-10-12T18:25:27;13.13;;;11.93;;
1693;SDS011;844;47.058;15.472;2022-10-12T18:28:14;13.37;;;12.00;;
1693;SDS011;844;47.058;15.472;2022-10-12T18:30:45;13.13;;;11.80;;
1693;SDS011;844;47.058;15.472;2022-10-12T18:33:23;12.90;;;11.73;;
1693;SDS011;844;47.058;15.472;2022-10-12T18:36:02;13.63;;;12.40;;
1693;SDS011;844;47.058;15.472;2022-10-12T18:38:35;12.97;;;11.73;;
1693;SDS011;844;47.058;15.472;2022-10-12T18:41:10;14.43;;;12.90;;
1693;SDS011;844;47.058;15.472;2022-10-12T18:43:41;14.13;;;12.67;;
1693;SDS011;844;47.058;15.472;2022-10-12T18:46:14;13.23;;;12.10;;
1693;SDS011;844;47.058;15.472;2022-10-12T18:48:45;14.63;;;13.13;;
1693;SDS011;844;47.058;15.472;2022-10-12T18:51:15;13.63;;;12.40;;
1693;SDS011;844;47.058;15.472;2022-10-12T18:53:51;14.40;;;13.13;;
1693;SDS011;844;47.058;15.472;2022-10-12T18:56:20;16.57;;;14.97;;
1693;SDS011;844;47.058;15.472;2022-10-12T18:58:50;14.83;;;13.43;;
1693;SDS011;844;47.058;15.472;2022-10-12T19:01:20;14.83;;;13.47;;
1693;SDS011;844;47.058;15.472;2022-10-12T19:03:52;14.10;;;12.90;;
1693;SDS011;844;47.058;15.472;2022-10-12T19:06:22;15.37;;;13.80;;
1693;SDS011;844;47.058;15.472;2022-10-12T19:08:55;15.60;;;14.30;;
1693;SDS011;844;47.058;15.472;2022-10-12T19:11:25;16.70;;;14.93;;
1693;SDS011;844;47.058;15.472;2022-10-12T19:13:58;17.80;;;15.77;;
1693;SDS011;844;47.058;15.472;2022-10-12T19:16:29;16.17;;;14.57;;
1693;SDS011;844;47.058;15.472;2022-10-12T19:18:59;19.13;;;17.43;;
1693;SDS011;844;47.058;15.472;2022-10-12T19:21:30;19.47;;;17.83;;
1693;SDS011;844;47.058;15.472;2022-10-12T19:24:02;21.13;;;19.17;;
1693;SDS011;844;47.058;15.472;2022-10-12T19:26:33;21.73;;;19.73;;
1693;SDS011;844;47.058;15.472;2022-10-12T19:29:03;23.83;;;21.50;;
1693;SDS011;844;47.058;15.472;2022-10-12T19:31:33;23.97;;;21.60;;
1693;SDS011;844;47.058;15.472;2022-10-12T19:34:05;23.40;;;20.90;;
1693;SDS011;844;47.058;15.472;2022-10-12T19:36:36;23.93;;;21.33;;
1693;SDS011;844;47.058;15.472;2022-10-12T19:39:08;24.67;;;20.63;;
1693;SDS011;844;47.058;15.472;2022-10-12T19:41:40;25.80;;;23.00;;
1693;SDS011;844;47.058;15.472;2022-10-12T19:44:10;23.80;;;20.77;;
1693;SDS011;844;47.058;15.472;2022-10-12T19:46:42;24.73;;;21.50;;
1693;SDS011;844;47.058;15.472;2022-10-12T19:49:13;21.47;;;19.40;;
1693;SDS011;844;47.058;15.472;2022-10-12T19:51:44;27.83;;;21.57;;
1693;SDS011;844;47.058;15.472;2022-10-12T19:54:14;23.10;;;21.00;;
1693;SDS011;844;47.058;15.472;2022-10-12T19:56:45;23.67;;;20.27;;
1693;SDS011;844;47.058;15.472;2022-10-12T19:59:14;22.50;;;20.40;;
1693;SDS011;844;47.058;15.472;2022-10-12T20:01:44;23.37;;;21.03;;
1693;SDS011;844;47.058;15.472;2022-10-12T20:04:14;27.37;;;21.13;;
1693;SDS011;844;47.058;15.472;2022-10-12T20:06:43;21.73;;;18.70;;
1693;SDS011;844;47.058;15.472;2022-10-12T20:09:12;19.77;;;17.80;;
1693;SDS011;844;47.058;15.472;2022-10-12T20:11:43;25.33;;;18.40;;
1693;SDS011;844;47.058;15.472;2022-10-12T20:14:12;17.60;;;16.13;;
1693;SDS011;844;47.058;15.472;2022-10-12T20:16:42;16.53;;;14.90;;
1693;SDS011;844;47.058;15.472;2022-10-12T20:19:11;16.83;;;15.33;;
1693;SDS011;844;47.058;15.472;2022-10-12T20:21:40;18.63;;;16.60;;
1693;SDS011;844;47.058;15.472;2022-10-12T20:24:09;20.80;;;17.70;;
1693;SDS011;844;47.058;15.472;2022-10-12T20:26:40;19.23;;;17.43;;
1693;SDS011;844;47.058;15.472;2022-10-12T20:29:09;18.70;;;17.10;;
1693;SDS011;844;47.058;15.472;2022-10-12T20:31:40;20.47;;;18.23;;
1693;SDS011;844;47.058;15.472;2022-10-12T20:34:09;18.53;;;16.90;;
1693;SDS011;844;47.058;15.472;2022-10-12T20:36:39;18.97;;;17.07;;
1693;SDS011;844;47.058;15.472;2022-10-12T20:39:08;17.87;;;16.40;;
1693;SDS011;844;47.058;15.472;2022-10-12T20:41:38;19.27;;;17.57;;
1693;SDS011;844;47.058;15.472;2022-10-12T20:44:09;17.43;;;15.93;;
1693;SDS011;844;47.058;15.472;2022-10-12T20:46:38;19.47;;;17.67;;
1693;SDS011;844;47.058;15.472;2022-10-12T20:49:10;20.27;;;18.47;;
1693;SDS011;844;47.058;15.472;2022-10-12T20:51:40;20.30;;;18.50;;
1693;SDS011;844;47.058;15.472;2022-10-12T20:54:10;17.77;;;16.17;;
1693;SDS011;844;47.058;15.472;2022-10-12T20:56:43;18.50;;;16.87;;
1693;SDS011;844;47.058;15.472;2022-10-12T20:59:15;19.93;;;17.37;;
1693;SDS011;844;47.058;15.472;2022-10-12T21:01:45;19.93;;;17.90;;
1693;SDS011;844;47.058;15.472;2022-10-12T21:04:14;19.27;;;17.73;;
1693;SDS011;844;47.058;15.472;2022-10-12T21:06:43;19.43;;;17.30;;
1693;SDS011;844;47.058;15.472;2022-10-12T21:09:13;18.93;;;17.23;;
1693;SDS011;844;47.058;15.472;2022-10-12T21:11:44;19.93;;;17.10;;
1693;SDS011;844;47.058;15.472;2022-10-12T21:14:14;18.07;;;16.47;;
1693;SDS011;844;47.058;15.472;2022-10-12T21:16:43;21.10;;;17.50;;
1693;SDS011;844;47.058;15.472;2022-10-12T21:19:15;18.30;;;16.70;;
1693;SDS011;844;47.058;15.472;2022-10-12T21:21:44;19.43;;;17.00;;
1693;SDS011;844;47.058;15.472;2022-10-12T21:24:13;18.93;;;17.17;;
1693;SDS011;844;47.058;15.472;2022-10-12T21:26:44;20.03;;;17.40;;
1693;SDS011;844;47.058;15.472;2022-10-12T21:29:14;19.17;;;17.27;;
1693;SDS011;844;47.058;15.472;2022-10-12T21:31:44;19.30;;;16.40;;
1693;SDS011;844;47.058;15.472;2022-10-12T21:34:13;17.27;;;15.57;;
1693;SDS011;844;47.058;15.472;2022-10-12T21:36:43;15.80;;;14.50;;
1693;SDS011;844;47.058;15.472;2022-10-12T21:39:13;22.50;;;16.70;;
1693;SDS011;844;47.058;15.472;2022-10-12T21:41:45;16.37;;;14.87;;
1693;SDS011;844;47.058;15.472;2022-10-12T21:44:14;16.10;;;14.60;;
1693;SDS011;844;47.058;15.472;2022-10-12T21:46:43;16.23;;;14.83;;
1693;SDS011;844;47.058;15.472;2022-10-12T21:49:12;14.17;;;12.73;;
1693;SDS011;844;47.058;15.472;2022-10-12T21:51:41;15.00;;;13.67;;
1693;SDS011;844;47.058;15.472;2022-10-12T21:54:10;17.03;;;15.37;;
1693;SDS011;844;47.058;15.472;2022-10-12T21:56:40;19.13;;;15.10;;
1693;SDS011;844;47.058;15.472;2022-10-12T21:59:11;17.50;;;14.50;;
1693;SDS011;844;47.058;15.472;2022-10-12T22:01:40;15.70;;;14.30;;
1693;SDS011;844;47.058;15.472;2022-10-12T22:04:10;14.93;;;13.83;;
1693;SDS011;844;47.058;15.472;2022-10-12T22:06:40;16.50;;;15.10;;
1693;SDS011;844;47.058;15.472;2022-10-12T22:09:10;17.30;;;15.67;;
1693;SDS011;844;47.058;15.472;2022-10-12T22:11:42;16.17;;;14.57;;
1693;SDS011;844;47.058;15.472;2022-10-12T22:14:14;15.00;;;13.70;;
1693;SDS011;844;47.058;15.472;2022-10-12T22:16:44;14.43;;;13.13;;
1693;SDS011;844;47.058;15.472;2022-10-12T22:19:14;16.50;;;15.10;;
1693;SDS011;844;47.058;15.472;2022-10-12T22:21:45;16.67;;;15.20;;
1693;SDS011;844;47.058;15.472;2022-10-12T22:24:16;17.20;;;15.60;;
1693;SDS011;844;47.058;15.472;2022-10-12T22:26:46;18.80;;;15.50;;
1693;SDS011;844;47.058;15.472;2022-10-12T22:29:16;16.27;;;15.00;;
1693;SDS011;844;47.058;15.472;2022-10-12T22:31:45;15.93;;;14.43;;
1693;SDS011;844;47.058;15.472;2022-10-12T22:34:15;18.47;;;15.80;;
1693;SDS011;844;47.058;15.472;2022-10-12T22:36:44;17.57;;;15.87;;
1693;SDS011;844;47.058;15.472;2022-10-12T22:39:13;16.97;;;15.27;;
1693;SDS011;844;47.058;15.472;2022-10-12T22:41:43;16.90;;;15.30;;
1693;SDS011;844;47.058;15.472;2022-10-12T22:44:12;17.00;;;15.17;;
1693;SDS011;844;47.058;15.472;2022-10-12T22:46:43;16.73;;;15.00;;
1693;SDS011;844;47.058;15.472;2022-10-12T22:49:12;17.60;;;15.87;;
1693;SDS011;844;47.058;15.472;2022-10-12T22:51:42;16.27;;;14.80;;
1693;SDS011;844;47.058;15.472;2022-10-12T22:54:11;15.87;;;14.37;;
1693;SDS011;844;47.058;15.472;2022-10-12T22:56:40;17.00;;;15.40;;
1693;SDS011;844;47.058;15.472;2022-10-12T22:59:11;17.40;;;13.50;;
1693;SDS011;844;47.058;15.472;2022-10-12T23:01:41;16.27;;;14.53;;
1693;SDS011;844;47.058;15.472;2022-10-12T23:04:12;15.90;;;14.50;;
1693;SDS011;844;47.058;15.472;2022-10-12T23:06:41;17.30;;;15.57;;
1693;SDS011;844;47.058;15.472;2022-10-12T23:09:11;16.80;;;15.30;;
1693;SDS011;844;47.058;15.472;2022-10-12T23:11:40;16.90;;;15.27;;
1693;SDS011;844;47.058;15.472;2022-10-12T23:14:09;17.10;;;15.30;;
1693;SDS011;844;47.058;15.472;2022-10-12T23:16:39;18.47;;;16.77;;
1693;SDS011;844;47.058;15.472;2022-10-12T23:19:10;16.73;;;15.13;;
1693;SDS011;844;47.058;15.472;2022-10-12T23:21:39;18.27;;;16.60;;
1693;SDS011;844;47.058;15.472;2022-10-12T23:24:09;18.10;;;16.30;;
1693;SDS011;844;47.058;15.472;2022-10-12T23:26:38;16.77;;;15.23;;
1693;SDS011;844;47.058;15.472;2022-10-12T23:29:08;17.00;;;15.20;;
1693;SDS011;844;47.058;15.472;2022-10-12T23:31:37;18.73;;;16.73;;
1693;SDS011;844;47.058;15.472;2022-10-12T23:34:10;18.40;;;16.53;;
1693;SDS011;844;47.058;15.472;2022-10-12T23:36:40;18.80;;;17.00;;
1693;SDS011;844;47.058;15.472;2022-10-12T23:39:09;19.30;;;17.50;;
1693;SDS011;844;47.058;15.472;2022-10-12T23:41:39;18.23;;;16.43;;
1693;SDS011;844;47.058;15.472;2022-10-12T23:44:08;17.87;;;16.23;;
1693;SDS011;844;47.058;15.472;2022-10-12T23:46:37;18.77;;;17.07;;
1693;SDS011;844;47.058;15.472;2022-10-12T23:49:07;18.80;;;17.07;;
1693;SDS011;844;47.058;15.472;2022-10-12T23:51:38;18.80;;;16.87;;
1693;SDS011;844;47.058;15.472;2022-10-12T23:54:07;21.20;;;19.13;;
1693;SDS011;844;47.058;15.472;2022-10-12T23:56:36;17.70;;;16.00;;
1693;SDS011;844;47.058;15.472;2022-10-12T23:59:06;26.20;;;17.80;;
